createdAt,value
2019-06-15T00:01:10.917Z,20.04
2019-06-15T00:03:40.242Z,19.99
2019-06-15T00:06:08.572Z,19.94
2019-06-15T00:08:36.939Z,19.91
2019-06-15T00:11:05.282Z,19.88
2019-06-15T00:13:33.613Z,19.86
2019-06-15T00:16:02.462Z,19.85
2019-06-15T00:18:30.743Z,19.86
2019-06-15T00:20:59.116Z,19.85
2019-06-15T00:23:27.437Z,19.86
2019-06-15T00:25:55.918Z,19.89
2019-06-15T00:28:24.233Z,19.92
2019-06-15T00:30:52.686Z,19.93
2019-06-15T00:33:21.171Z,19.97
2019-06-15T00:35:49.562Z,19.98
2019-06-15T00:38:17.926Z,20.00
2019-06-15T00:40:46.273Z,20.01
2019-06-15T00:43:15.091Z,20.02
2019-06-15T00:45:43.470Z,20.03
2019-06-15T00:48:11.882Z,20.04
2019-06-15T00:50:40.328Z,20.05
2019-06-15T00:53:08.782Z,20.05
2019-06-15T00:55:37.328Z,20.04
2019-06-15T00:58:05.811Z,20.04
2019-06-15T01:00:34.162Z,20.01
2019-06-15T01:03:02.477Z,19.98
2019-06-15T01:05:31.668Z,19.92
2019-06-15T01:07:59.984Z,19.86
2019-06-15T01:10:28.280Z,19.84
2019-06-15T01:12:56.619Z,19.83
2019-06-15T01:15:24.907Z,19.83
2019-06-15T01:17:53.196Z,19.83
2019-06-15T01:20:21.584Z,19.84
2019-06-15T01:22:49.869Z,19.85
2019-06-15T01:25:18.206Z,19.89
2019-06-15T01:27:46.499Z,19.88
2019-06-15T01:30:14.779Z,19.88
2019-06-15T01:32:43.223Z,19.85
2019-06-15T01:35:11.560Z,19.84
2019-06-15T01:37:39.850Z,19.80
2019-06-15T01:40:08.257Z,19.73
2019-06-15T01:42:36.614Z,19.73
2019-06-15T01:45:05.697Z,19.69
2019-06-15T01:47:34.059Z,19.68
2019-06-15T01:50:03.498Z,19.65
2019-06-15T01:52:31.808Z,19.60
2019-06-15T01:55:00.087Z,19.53
2019-06-15T01:57:28.395Z,19.46
2019-06-15T01:59:56.830Z,19.43
2019-06-15T02:02:25.105Z,19.38
2019-06-15T02:04:53.394Z,19.31
2019-06-15T02:07:21.747Z,19.28
2019-06-15T02:09:50.095Z,19.25
2019-06-15T02:12:18.377Z,19.20
2019-06-15T02:14:46.699Z,19.20
2019-06-15T02:17:15.027Z,19.21
2019-06-15T02:19:43.411Z,19.22
2019-06-15T02:22:11.829Z,19.23
2019-06-15T02:24:40.119Z,19.24
2019-06-15T02:27:08.688Z,19.25
2019-06-15T02:29:36.974Z,19.25
2019-06-15T02:32:05.618Z,19.26
2019-06-15T02:34:33.928Z,19.26
2019-06-15T02:37:02.249Z,19.22
2019-06-15T02:39:30.917Z,19.17
2019-06-15T02:41:59.209Z,19.19
2019-06-15T02:44:27.493Z,19.18
2019-06-15T02:46:56.404Z,19.17
2019-06-15T02:49:24.682Z,19.12
2019-06-15T02:51:53.055Z,19.09
2019-06-15T02:54:21.369Z,19.04
2019-06-15T02:56:49.806Z,18.96
2019-06-15T02:59:18.130Z,18.93
2019-06-15T03:01:46.499Z,18.92
2019-06-15T03:04:15.784Z,18.91
2019-06-15T03:06:44.143Z,18.88
2019-06-15T03:09:12.439Z,18.82
2019-06-15T03:11:40.766Z,18.77
2019-06-15T03:14:09.220Z,18.72
2019-06-15T03:16:37.517Z,18.58
2019-06-15T03:19:05.804Z,18.56
2019-06-15T03:21:34.126Z,18.54
2019-06-15T03:24:02.538Z,18.54
2019-06-15T03:26:31.180Z,18.55
2019-06-15T03:28:59.469Z,18.54
2019-06-15T03:31:27.763Z,18.54
2019-06-15T03:33:56.204Z,18.53
2019-06-15T03:36:24.488Z,18.54
2019-06-15T03:38:53.562Z,18.53
2019-06-15T03:41:21.982Z,18.44
2019-06-15T03:43:50.275Z,18.38
2019-06-15T03:46:18.582Z,18.38
2019-06-15T03:48:46.937Z,18.36
2019-06-15T03:51:15.225Z,18.39
2019-06-15T03:53:43.538Z,18.46
2019-06-15T03:56:21.011Z,18.52
2019-06-15T03:58:42.042Z,18.55
2019-06-15T04:01:13.732Z,18.57
2019-06-15T04:03:42.022Z,18.59
2019-06-15T04:06:10.322Z,18.59
2019-06-15T04:08:38.669Z,18.59
2019-06-15T04:11:06.979Z,18.59
2019-06-15T04:13:35.276Z,18.62
2019-06-15T04:16:03.590Z,18.63
2019-06-15T04:18:31.922Z,18.64
2019-06-15T04:21:00.250Z,18.61
2019-06-15T04:23:28.547Z,18.60
2019-06-15T04:25:56.973Z,18.57
2019-06-15T04:28:25.275Z,18.62
2019-06-15T04:30:53.568Z,18.58
2019-06-15T04:33:21.891Z,18.55
2019-06-15T04:35:50.227Z,18.52
2019-06-15T04:38:18.573Z,18.46
2019-06-15T04:40:47.536Z,18.46
2019-06-15T04:43:15.928Z,18.42
2019-06-15T04:45:44.236Z,18.34
2019-06-15T04:48:12.665Z,18.29
2019-06-15T04:50:40.956Z,18.27
2019-06-15T04:53:09.366Z,18.28
2019-06-15T04:55:37.668Z,18.31
2019-06-15T04:58:05.967Z,18.31
2019-06-15T05:00:34.698Z,18.33
2019-06-15T05:03:03.069Z,18.35
2019-06-15T05:05:31.443Z,18.37
2019-06-15T05:07:59.940Z,18.39
2019-06-15T05:10:28.237Z,18.43
2019-06-15T05:12:57.439Z,18.48
2019-06-15T05:15:25.752Z,18.48
2019-06-15T05:17:54.172Z,18.50
2019-06-15T05:20:22.493Z,18.54
2019-06-15T05:22:50.793Z,18.57
2019-06-15T05:25:19.108Z,18.62
2019-06-15T05:27:47.431Z,18.65
2019-06-15T05:30:15.770Z,18.69
2019-06-15T05:32:44.178Z,18.65
2019-06-15T05:35:12.523Z,18.58
2019-06-15T05:37:40.844Z,18.61
2019-06-15T05:40:09.137Z,18.63
2019-06-15T05:42:37.581Z,18.67
2019-06-15T05:45:08.823Z,18.69
2019-06-15T05:47:37.119Z,18.71
2019-06-15T05:50:05.843Z,18.73
2019-06-15T05:52:34.305Z,18.71
2019-06-15T05:55:02.593Z,18.72
2019-06-15T05:57:30.912Z,18.74
2019-06-15T05:59:59.524Z,18.75
2019-06-15T06:02:27.815Z,18.75
2019-06-15T06:04:56.235Z,18.76
2019-06-15T06:07:24.707Z,18.74
2019-06-15T06:09:52.999Z,18.76
2019-06-15T06:12:21.990Z,18.75
2019-06-15T06:14:50.358Z,18.74
2019-06-15T06:17:18.663Z,18.73
2019-06-15T06:19:47.047Z,18.64
2019-06-15T06:22:15.442Z,18.58
2019-06-15T06:24:43.775Z,18.56
2019-06-15T06:27:12.074Z,18.55
2019-06-15T06:29:40.749Z,18.54
2019-06-15T06:32:09.044Z,18.54
2019-06-15T06:34:37.343Z,18.57
2019-06-15T06:37:05.662Z,18.60
2019-06-15T06:39:33.944Z,18.65
2019-06-15T06:42:02.289Z,18.71
2019-06-15T06:44:30.589Z,18.66
2019-06-15T06:46:58.875Z,18.64
2019-06-15T06:49:27.240Z,18.64
2019-06-15T06:51:55.525Z,18.57
2019-06-15T06:54:23.830Z,18.58
2019-06-15T06:56:52.170Z,18.59
2019-06-15T06:59:20.492Z,18.53
2019-06-15T07:01:48.842Z,18.53
2019-06-15T07:04:17.132Z,18.52
2019-06-15T07:06:45.422Z,18.48
2019-06-15T07:09:13.732Z,18.47
2019-06-15T07:11:42.057Z,18.47
2019-06-15T07:14:10.486Z,18.49
2019-06-15T07:16:38.770Z,18.48
2019-06-15T07:19:07.113Z,18.49
2019-06-15T07:21:35.408Z,18.47
2019-06-15T07:24:03.869Z,18.47
2019-06-15T07:26:33.492Z,18.46
2019-06-15T07:29:01.798Z,18.49
2019-06-15T07:31:30.898Z,18.50
2019-06-15T07:33:59.316Z,18.49
2019-06-15T07:36:27.614Z,18.48
2019-06-15T07:38:55.917Z,18.47
2019-06-15T07:41:24.229Z,18.45
2019-06-15T07:43:52.515Z,18.42
2019-06-15T07:46:20.837Z,18.43
2019-06-15T07:48:49.153Z,18.44
2019-06-15T07:51:17.479Z,18.46
2019-06-15T07:53:45.843Z,18.48
2019-06-15T07:56:14.161Z,18.47
2019-06-15T07:58:42.555Z,18.47
2019-06-15T08:01:10.880Z,18.42
2019-06-15T08:03:39.193Z,18.43
2019-06-15T08:06:07.493Z,18.44
2019-06-15T08:08:35.995Z,18.45
2019-06-15T08:11:04.396Z,18.45
2019-06-15T08:13:32.679Z,18.43
2019-06-15T08:16:01.102Z,18.42
2019-06-15T08:18:29.408Z,18.39
2019-06-15T08:20:57.810Z,18.42
2019-06-15T08:23:26.157Z,18.41
2019-06-15T08:25:54.451Z,18.43
2019-06-15T08:28:22.755Z,18.40
2019-06-15T08:30:51.076Z,18.42
2019-06-15T08:33:19.363Z,18.40
2019-06-15T08:35:47.679Z,18.42
2019-06-15T08:38:15.994Z,18.37
2019-06-15T08:40:44.289Z,18.39
2019-06-15T08:43:12.743Z,18.37
2019-06-15T08:45:41.032Z,18.36
2019-06-15T08:48:09.361Z,18.32
2019-06-15T08:50:37.677Z,18.30
2019-06-15T08:53:05.995Z,18.30
2019-06-15T08:55:34.328Z,18.33
2019-06-15T08:58:02.622Z,18.30
2019-06-15T09:00:30.918Z,18.30
2019-06-15T09:02:59.271Z,18.26
2019-06-15T09:05:27.587Z,18.23
2019-06-15T09:07:55.892Z,18.21
2019-06-15T09:10:24.331Z,18.23
2019-06-15T09:12:52.631Z,18.22
2019-06-15T09:15:39.327Z,18.25
2019-06-15T09:18:07.628Z,18.30
2019-06-15T09:20:35.951Z,18.27
2019-06-15T09:23:04.251Z,18.27
2019-06-15T09:25:32.604Z,18.30
2019-06-15T09:28:00.891Z,18.30
2019-06-15T09:30:29.235Z,18.29
2019-06-15T09:32:57.536Z,18.32
2019-06-15T09:35:25.825Z,18.35
2019-06-15T09:37:54.552Z,18.41
2019-06-15T09:40:22.840Z,18.38
2019-06-15T09:42:51.154Z,18.39
2019-06-15T09:45:19.475Z,18.44
2019-06-15T09:47:47.751Z,18.50
2019-06-15T09:50:16.042Z,18.50
2019-06-15T09:52:44.558Z,18.54
2019-06-15T09:55:12.927Z,18.59
2019-06-15T09:57:41.231Z,18.65
2019-06-15T10:00:09.684Z,18.72
2019-06-15T10:02:38.347Z,18.78
2019-06-15T10:05:06.758Z,18.83
2019-06-15T10:07:35.210Z,18.88
2019-06-15T10:10:07.702Z,18.90
2019-06-15T10:12:36.012Z,18.92
2019-06-15T10:15:07.828Z,18.96
2019-06-15T10:17:36.140Z,19.00
2019-06-15T10:20:07.409Z,19.05
2019-06-15T10:22:35.701Z,19.08
2019-06-15T10:25:05.216Z,19.10
2019-06-15T10:27:33.605Z,19.17
2019-06-15T10:30:01.901Z,19.25
2019-06-15T10:32:30.185Z,19.30
2019-06-15T10:34:58.493Z,19.38
2019-06-15T10:37:26.821Z,19.42
2019-06-15T10:39:55.137Z,19.46
2019-06-15T10:42:23.475Z,19.47
2019-06-15T10:44:52.158Z,19.52
2019-06-15T10:47:20.445Z,19.60
2019-06-15T10:49:48.733Z,19.69
2019-06-15T10:52:17.092Z,19.78
2019-06-15T10:54:45.372Z,19.92
2019-06-15T10:57:13.666Z,20.06
2019-06-15T10:59:56.162Z,20.21
2019-06-15T11:02:12.073Z,20.35
2019-06-15T11:04:40.369Z,20.49
2019-06-15T11:07:08.680Z,20.62
2019-06-15T11:09:36.963Z,20.77
2019-06-15T11:12:05.294Z,20.91
2019-06-15T11:14:33.604Z,21.09
2019-06-15T11:17:02.569Z,21.36
2019-06-15T11:19:30.931Z,21.77
2019-06-15T11:21:59.198Z,22.11
2019-06-15T11:24:27.482Z,22.30
2019-06-15T11:26:55.863Z,22.32
2019-06-15T11:29:24.153Z,22.30
2019-06-15T11:31:52.457Z,22.25
2019-06-15T11:34:20.742Z,22.20
2019-06-15T11:36:49.174Z,22.17
2019-06-15T11:39:17.545Z,22.09
2019-06-15T11:41:45.844Z,21.95
2019-06-15T11:44:14.159Z,21.50
2019-06-15T11:46:42.465Z,21.09
2019-06-15T11:49:10.783Z,20.74
2019-06-15T11:51:39.096Z,20.58
2019-06-15T11:54:07.395Z,20.49
2019-06-15T11:56:35.716Z,20.51
2019-06-15T11:59:04.039Z,20.52
2019-06-15T12:01:32.393Z,20.52
2019-06-15T12:04:00.681Z,20.43
2019-06-15T12:06:29.114Z,20.24
2019-06-15T12:08:57.404Z,20.29
2019-06-15T12:11:25.760Z,20.47
2019-06-15T12:13:54.081Z,20.49
2019-06-15T12:16:22.514Z,20.43
2019-06-15T12:18:50.848Z,20.31
2019-06-15T12:21:19.126Z,20.08
2019-06-15T12:23:47.432Z,19.98
2019-06-15T12:26:15.757Z,19.73
2019-06-15T12:28:44.040Z,19.53
2019-06-15T12:31:12.515Z,19.53
2019-06-15T12:33:40.854Z,19.48
2019-06-15T12:36:18.880Z,19.70
2019-06-15T12:38:40.127Z,20.05
2019-06-15T12:41:08.519Z,20.13
2019-06-15T12:43:37.126Z,20.11
2019-06-15T12:46:05.439Z,19.94
2019-06-15T12:48:33.742Z,19.85
2019-06-15T12:51:02.050Z,20.06
2019-06-15T12:53:30.448Z,20.38
2019-06-15T12:55:59.433Z,20.29
2019-06-15T12:58:29.291Z,20.29
2019-06-15T13:01:02.991Z,20.36
2019-06-15T13:03:27.652Z,20.41
2019-06-15T13:05:56.028Z,20.30
2019-06-15T13:08:24.346Z,20.62
2019-06-15T13:10:52.750Z,20.84
2019-06-15T13:13:21.037Z,20.67
2019-06-15T13:15:49.327Z,20.70
2019-06-15T13:18:17.741Z,20.64
2019-06-15T13:20:46.024Z,20.67
2019-06-15T13:23:15.093Z,20.77
2019-06-15T13:25:43.514Z,20.86
2019-06-15T13:28:11.849Z,20.84
2019-06-15T13:30:40.209Z,20.92
2019-06-15T13:33:08.607Z,20.73
2019-06-15T13:35:36.914Z,20.76
2019-06-15T13:38:05.204Z,20.99
2019-06-15T13:40:33.582Z,21.14
2019-06-15T13:43:01.938Z,21.29
2019-06-15T13:45:30.249Z,21.45
2019-06-15T13:47:58.562Z,21.29
2019-06-15T13:50:26.982Z,21.51
2019-06-15T13:52:55.268Z,21.53
2019-06-15T13:55:23.608Z,21.64
2019-06-15T13:57:52.023Z,21.64
2019-06-15T14:00:20.383Z,21.54
2019-06-15T14:02:48.747Z,21.42
2019-06-15T14:05:17.066Z,21.38
2019-06-15T14:07:45.550Z,21.37
2019-06-15T14:10:13.834Z,21.44
2019-06-15T14:12:42.160Z,21.55
2019-06-15T14:15:10.646Z,21.60
2019-06-15T14:17:39.925Z,21.55
2019-06-15T14:20:09.100Z,21.55
2019-06-15T14:22:37.953Z,21.28
2019-06-15T14:25:07.487Z,21.19
2019-06-15T14:27:35.939Z,21.28
2019-06-15T14:30:08.868Z,21.48
2019-06-15T14:32:37.150Z,21.63
2019-06-15T14:35:07.503Z,21.66
2019-06-15T14:37:35.819Z,21.75
2019-06-15T14:40:05.122Z,21.83
2019-06-15T14:42:33.483Z,21.75
2019-06-15T14:45:01.903Z,21.66
2019-06-15T14:47:30.224Z,21.55
2019-06-15T14:49:58.539Z,21.71
2019-06-15T14:52:26.880Z,21.79
2019-06-15T14:54:56.640Z,21.77
2019-06-15T14:57:27.096Z,21.69
2019-06-15T15:00:03.951Z,21.51
2019-06-15T15:02:26.252Z,21.46
2019-06-15T15:04:56.463Z,21.32
2019-06-15T15:07:26.386Z,21.27
2019-06-15T15:09:56.740Z,21.13
2019-06-15T15:12:26.619Z,21.17
2019-06-15T15:14:56.532Z,21.26
2019-06-15T15:17:26.913Z,21.46
2019-06-15T15:19:57.366Z,21.54
2019-06-15T15:22:26.799Z,21.69
2019-06-15T15:24:56.142Z,21.91
2019-06-15T15:27:27.184Z,22.07
2019-06-15T15:29:56.910Z,22.21
2019-06-15T15:32:30.570Z,22.26
2019-06-15T15:34:56.050Z,22.49
2019-06-15T15:37:26.833Z,22.73
2019-06-15T15:39:56.603Z,22.83
2019-06-15T15:42:26.664Z,22.84
2019-06-15T15:44:56.568Z,22.74
2019-06-15T15:47:27.481Z,22.74
2019-06-15T15:49:57.629Z,22.76
2019-06-15T15:52:26.974Z,22.65
2019-06-15T15:54:56.491Z,22.43
2019-06-15T15:57:26.668Z,22.22
2019-06-15T15:59:56.313Z,21.97
2019-06-15T16:02:35.469Z,21.97
2019-06-15T16:04:57.477Z,22.05
2019-06-15T16:07:27.876Z,21.85
2019-06-15T16:09:55.425Z,21.97
2019-06-15T16:12:23.696Z,22.11
2019-06-15T16:14:52.034Z,22.21
2019-06-15T16:17:20.415Z,22.24
2019-06-15T16:19:48.727Z,22.28
2019-06-15T16:22:17.046Z,22.31
2019-06-15T16:24:47.720Z,22.24
2019-06-15T16:27:15.983Z,22.34
2019-06-15T16:29:47.011Z,22.39
2019-06-15T16:32:16.131Z,22.49
2019-06-15T16:34:47.286Z,22.70
2019-06-15T16:37:16.885Z,22.92
2019-06-15T16:39:46.699Z,22.99
2019-06-15T16:42:14.756Z,22.97
2019-06-15T16:44:43.068Z,22.94
2019-06-15T16:47:11.445Z,22.94
2019-06-15T16:49:39.724Z,22.89
2019-06-15T16:52:08.130Z,22.84
2019-06-15T16:54:36.762Z,22.75
2019-06-15T16:57:05.024Z,22.66
2019-06-15T16:59:33.325Z,22.66
2019-06-15T17:02:01.673Z,22.65
2019-06-15T17:04:30.011Z,22.72
2019-06-15T17:06:58.313Z,22.78
2019-06-15T17:09:27.577Z,22.58
2019-06-15T17:11:57.095Z,22.55
2019-06-15T17:14:27.059Z,22.61
2019-06-15T17:16:56.717Z,22.64
2019-06-15T17:19:26.907Z,22.53
2019-06-15T17:21:58.194Z,22.57
2019-06-15T17:24:26.576Z,22.56
2019-06-15T17:26:57.054Z,22.57
2019-06-15T17:29:25.455Z,22.56
2019-06-15T17:31:54.048Z,22.42
2019-06-15T17:34:22.394Z,22.31
2019-06-15T17:36:51.174Z,22.17
2019-06-15T17:39:19.591Z,22.19
2019-06-15T17:41:47.937Z,22.01
2019-06-15T17:44:16.853Z,21.98
2019-06-15T17:46:46.424Z,21.79
2019-06-15T17:49:17.666Z,21.83
2019-06-15T17:51:46.173Z,21.79
2019-06-15T17:54:16.875Z,21.83
2019-06-15T17:56:46.214Z,21.84
2019-06-15T17:59:16.275Z,21.75
2019-06-15T18:01:46.907Z,21.74
2019-06-15T18:04:16.571Z,21.69
2019-06-15T18:06:46.879Z,21.65
2019-06-15T18:09:17.005Z,21.57
2019-06-15T18:11:46.454Z,21.32
2019-06-15T18:14:17.496Z,21.29
2019-06-15T18:16:46.969Z,21.06
2019-06-15T18:19:17.086Z,20.97
2019-06-15T18:21:46.704Z,20.96
2019-06-15T18:24:16.349Z,20.91
2019-06-15T18:26:47.171Z,20.84
2019-06-15T18:29:16.796Z,20.87
2019-06-15T18:31:44.937Z,20.88
2019-06-15T18:34:16.776Z,20.84
2019-06-15T18:36:44.254Z,20.81
2019-06-15T18:39:12.707Z,20.74
2019-06-15T18:41:40.982Z,20.66
2019-06-15T18:44:09.296Z,20.59
2019-06-15T18:46:37.561Z,20.55
2019-06-15T18:49:06.717Z,20.52
2019-06-15T18:51:35.459Z,20.51
2019-06-15T18:54:03.745Z,20.45
2019-06-15T18:56:32.386Z,20.40
2019-06-15T18:59:00.726Z,20.38
2019-06-15T19:01:29.026Z,20.33
2019-06-15T19:03:57.313Z,20.23
2019-06-15T19:06:26.437Z,20.18
2019-06-15T19:08:57.297Z,20.19
2019-06-15T19:11:27.201Z,20.20
2019-06-15T19:13:56.347Z,20.17
2019-06-15T19:16:24.711Z,20.18
2019-06-15T19:18:53.021Z,20.21
2019-06-15T19:21:21.536Z,20.26
2019-06-15T19:23:49.880Z,20.28
2019-06-15T19:26:18.273Z,20.29
2019-06-15T19:28:46.686Z,20.33
2019-06-15T19:31:15.043Z,20.37
2019-06-15T19:33:43.456Z,20.38
2019-06-15T19:36:11.877Z,20.37
2019-06-15T19:38:40.258Z,20.36
2019-06-15T19:41:08.593Z,20.33
2019-06-15T19:43:36.892Z,20.23
2019-06-15T19:46:06.780Z,20.19
2019-06-15T19:48:36.858Z,20.15
2019-06-15T19:51:05.434Z,20.10
2019-06-15T19:53:36.380Z,20.08
2019-06-15T19:56:06.806Z,20.05
2019-06-15T19:58:34.700Z,19.99
2019-06-15T20:01:03.197Z,19.97
2019-06-15T20:03:31.525Z,19.95
2019-06-15T20:05:59.921Z,19.92
2019-06-15T20:08:28.244Z,19.87
2019-06-15T20:10:56.774Z,19.84
2019-06-15T20:13:25.342Z,19.80
2019-06-15T20:15:53.673Z,19.76
2019-06-15T20:18:22.108Z,19.70
2019-06-15T20:20:50.435Z,19.65
2019-06-15T20:23:18.791Z,19.59
2019-06-15T20:25:47.312Z,19.53
2019-06-15T20:28:16.357Z,19.45
2019-06-15T20:30:46.175Z,19.39
2019-06-15T20:33:16.652Z,19.32
2019-06-15T20:35:47.205Z,19.26
2019-06-15T20:38:16.113Z,19.16
2019-06-15T20:40:47.328Z,19.07
2019-06-15T20:43:17.127Z,18.98
2019-06-15T20:45:46.899Z,18.89
2019-06-15T20:48:15.427Z,18.81
2019-06-15T20:50:43.877Z,18.76
2019-06-15T20:53:12.150Z,18.72
2019-06-15T20:55:40.443Z,18.67
2019-06-15T20:58:08.751Z,18.62
2019-06-15T21:00:37.156Z,18.55
2019-06-15T21:03:06.837Z,18.50
2019-06-15T21:05:41.035Z,18.43
2019-06-15T21:08:06.900Z,18.37
2019-06-15T21:10:37.246Z,18.30
2019-06-15T21:13:05.506Z,18.24
2019-06-15T21:15:37.110Z,18.16
2019-06-15T21:18:06.798Z,18.09
2019-06-15T21:20:36.332Z,18.02
2019-06-15T21:23:06.605Z,17.97
2019-06-15T21:25:35.157Z,17.93
2019-06-15T21:28:06.478Z,17.86
2019-06-15T21:30:36.642Z,17.79
2019-06-15T21:33:06.817Z,17.75
2019-06-15T21:35:46.121Z,17.72
2019-06-15T21:38:06.347Z,17.66
2019-06-15T21:40:36.624Z,17.64
2019-06-15T21:43:04.106Z,17.61
2019-06-15T21:45:32.394Z,17.57
2019-06-15T21:48:00.772Z,17.54
2019-06-15T21:50:29.260Z,17.49
2019-06-15T21:52:57.543Z,17.44
2019-06-15T21:55:26.840Z,17.36
2019-06-15T21:57:56.458Z,17.22
2019-06-15T22:00:47.570Z,17.16
2019-06-15T22:03:16.877Z,17.08
2019-06-15T22:05:47.279Z,16.99
2019-06-15T22:08:17.028Z,16.91
2019-06-15T22:10:44.907Z,16.83
2019-06-15T22:13:15.843Z,16.75
2019-06-15T22:15:43.314Z,16.70
2019-06-15T22:18:11.626Z,16.66
2019-06-15T22:20:39.927Z,16.61
2019-06-15T22:23:08.350Z,16.58
2019-06-15T22:25:36.634Z,16.58
2019-06-15T22:28:06.884Z,16.54
2019-06-15T22:30:36.660Z,16.51
2019-06-15T22:33:06.801Z,16.50
2019-06-15T22:35:36.380Z,16.48
2019-06-15T22:38:07.121Z,16.46
2019-06-15T22:40:36.336Z,16.43
2019-06-15T22:43:06.875Z,16.40
2019-06-15T22:45:34.861Z,16.35
2019-06-15T22:48:03.190Z,16.29
2019-06-15T22:50:31.529Z,16.27
2019-06-15T22:52:59.881Z,16.23
2019-06-15T22:55:28.172Z,16.20
2019-06-15T22:57:56.732Z,16.15
2019-06-15T23:00:26.559Z,16.10
2019-06-15T23:02:56.588Z,16.06
2019-06-15T23:05:26.329Z,16.05
2019-06-15T23:07:55.965Z,16.02
2019-06-15T23:10:24.572Z,15.97
2019-06-15T23:12:53.062Z,15.91
2019-06-15T23:15:21.375Z,15.86
2019-06-15T23:17:49.617Z,15.82
2019-06-15T23:20:17.917Z,15.74
2019-06-15T23:22:46.897Z,15.70
2019-06-15T23:25:16.836Z,15.64
2019-06-15T23:27:46.917Z,15.62
2019-06-15T23:30:16.152Z,15.60
2019-06-15T23:32:46.873Z,15.59
2019-06-15T23:35:16.798Z,15.55
2019-06-15T23:37:46.474Z,15.50
2019-06-15T23:40:29.291Z,15.46
2019-06-15T23:42:57.575Z,15.44
2019-06-15T23:45:26.848Z,15.38
2019-06-15T23:47:57.444Z,15.34
2019-06-15T23:50:26.426Z,15.30
2019-06-15T23:52:55.068Z,15.26
2019-06-15T23:55:23.358Z,15.22
2019-06-15T23:57:51.640Z,15.20
